sensor_id;sensor_type;location;lat;lon;timestamp;P1;durP1;ratioP1;P2;durP2;ratioP2
9310;SDS011;4694;52.464;13.480;2022-10-26T00:00:23;21.92;;;11.73;;
9310;SDS011;4694;52.464;13.480;2022-10-26T00:02:50;24.10;;;13.10;;
9310;SDS011;4694;52.464;13.480;2022-10-26T00:05:19;27.25;;;12.88;;
9310;SDS011;4694;52.464;13.480;2022-10-26T00:07:48;25.33;;;12.45;;
9310;SDS011;4694;52.464;13.480;2022-10-26T00:10:15;21.55;;;10.20;;
9310;SDS011;4694;52.464;13.480;2022-10-26T00:12:47;21.23;;;12.48;;
9310;SDS011;4694;52.464;13.480;2022-10-26T00:15:14;24.35;;;12.95;;
9310;SDS011;4694;52.464;13.480;2022-10-26T00:17:41;19.45;;;10.38;;
9310;SDS011;4694;52.464;13.480;2022-10-26T00:20:08;23.60;;;12.60;;
9310;SDS011;4694;52.464;13.480;2022-10-26T00:22:35;19.55;;;12.60;;
9310;SDS011;4694;52.464;13.480;2022-10-26T00:25:04;21.52;;;11.00;;
9310;SDS011;4694;52.464;13.480;2022-10-26T00:27:31;26.75;;;12.88;;
9310;SDS011;4694;52.464;13.480;2022-10-26T00:29:59;25.35;;;11.15;;
9310;SDS011;4694;52.464;13.480;2022-10-26T00:32:26;17.55;;;11.45;;
9310;SDS011;4694;52.464;13.480;2022-10-26T00:34:53;24.13;;;11.73;;
9310;SDS011;4694;52.464;13.480;2022-10-26T00:37:20;26.02;;;12.68;;
9310;SDS011;4694;52.464;13.480;2022-10-26T00:39:47;25.70;;;11.60;;
9310;SDS011;4694;52.464;13.480;2022-10-26T00:42:17;27.25;;;12.98;;
9310;SDS011;4694;52.464;13.480;2022-10-26T00:44:57;24.92;;;12.95;;
9310;SDS011;4694;52.464;13.480;2022-10-26T00:47:28;21.95;;;11.98;;
9310;SDS011;4694;52.464;13.480;2022-10-26T00:49:57;19.77;;;11.32;;
9310;SDS011;4694;52.464;13.480;2022-10-26T00:52:27;23.37;;;11.37;;
9310;SDS011;4694;52.464;13.480;2022-10-26T00:54:54;21.15;;;11.18;;
9310;SDS011;4694;52.464;13.480;2022-10-26T00:57:23;24.00;;;11.13;;
9310;SDS011;4694;52.464;13.480;2022-10-26T00:59:50;23.70;;;11.65;;
9310;SDS011;4694;52.464;13.480;2022-10-26T01:02:18;22.70;;;11.07;;
9310;SDS011;4694;52.464;13.480;2022-10-26T01:04:46;18.10;;;11.45;;
9310;SDS011;4694;52.464;13.480;2022-10-26T01:07:13;21.92;;;10.98;;
9310;SDS011;4694;52.464;13.480;2022-10-26T01:09:40;25.25;;;13.18;;
9310;SDS011;4694;52.464;13.480;2022-10-26T01:12:07;19.90;;;10.07;;
9310;SDS011;4694;52.464;13.480;2022-10-26T01:14:35;20.65;;;10.40;;
9310;SDS011;4694;52.464;13.480;2022-10-26T01:17:05;22.92;;;11.23;;
9310;SDS011;4694;52.464;13.480;2022-10-26T01:19:41;20.65;;;10.73;;
9310;SDS011;4694;52.464;13.480;2022-10-26T01:22:12;19.50;;;10.88;;
9310;SDS011;4694;52.464;13.480;2022-10-26T01:24:44;16.48;;;9.90;;
9310;SDS011;4694;52.464;13.480;2022-10-26T01:27:20;15.07;;;9.95;;
9310;SDS011;4694;52.464;13.480;2022-10-26T01:32:42;19.67;;;10.88;;
9310;SDS011;4694;52.464;13.480;2022-10-26T01:35:13;27.67;;;11.10;;
9310;SDS011;4694;52.464;13.480;2022-10-26T01:37:43;23.15;;;9.90;;
9310;SDS011;4694;52.464;13.480;2022-10-26T01:40:13;21.20;;;9.38;;
9310;SDS011;4694;52.464;13.480;2022-10-26T01:42:43;18.42;;;9.45;;
9310;SDS011;4694;52.464;13.480;2022-10-26T01:45:14;24.48;;;11.63;;
9310;SDS011;4694;52.464;13.480;2022-10-26T01:47:43;17.35;;;9.60;;
9310;SDS011;4694;52.464;13.480;2022-10-26T01:50:11;17.05;;;10.45;;
9310;SDS011;4694;52.464;13.480;2022-10-26T01:52:39;20.08;;;10.75;;
9310;SDS011;4694;52.464;13.480;2022-10-26T01:55:31;19.98;;;10.25;;
9310;SDS011;4694;52.464;13.480;2022-10-26T01:57:53;20.23;;;10.25;;
9310;SDS011;4694;52.464;13.480;2022-10-26T02:00:26;15.65;;;8.95;;
9310;SDS011;4694;52.464;13.480;2022-10-26T02:02:56;17.50;;;9.95;;
9310;SDS011;4694;52.464;13.480;2022-10-26T02:05:30;19.42;;;10.82;;
9310;SDS011;4694;52.464;13.480;2022-10-26T02:08:01;20.15;;;9.63;;
9310;SDS011;4694;52.464;13.480;2022-10-26T02:10:33;19.33;;;9.32;;
9310;SDS011;4694;52.464;13.480;2022-10-26T02:13:06;19.55;;;10.05;;
9310;SDS011;4694;52.464;13.480;2022-10-26T02:15:37;19.60;;;10.15;;
9310;SDS011;4694;52.464;13.480;2022-10-26T02:18:09;16.30;;;9.48;;
9310;SDS011;4694;52.464;13.480;2022-10-26T02:20:41;17.08;;;10.05;;
9310;SDS011;4694;52.464;13.480;2022-10-26T02:23:09;19.17;;;10.98;;
9310;SDS011;4694;52.464;13.480;2022-10-26T02:25:38;19.40;;;9.10;;
9310;SDS011;4694;52.464;13.480;2022-10-26T02:28:07;21.40;;;11.63;;
9310;SDS011;4694;52.464;13.480;2022-10-26T02:30:36;19.20;;;10.35;;
9310;SDS011;4694;52.464;13.480;2022-10-26T02:33:04;22.92;;;9.43;;
9310;SDS011;4694;52.464;13.480;2022-10-26T02:35:35;16.15;;;10.00;;
9310;SDS011;4694;52.464;13.480;2022-10-26T02:38:04;26.13;;;10.07;;
9310;SDS011;4694;52.464;13.480;2022-10-26T02:40:33;20.93;;;10.13;;
9310;SDS011;4694;52.464;13.480;2022-10-26T02:43:02;17.05;;;10.23;;
9310;SDS011;4694;52.464;13.480;2022-10-26T02:45:30;23.40;;;11.23;;
9310;SDS011;4694;52.464;13.480;2022-10-26T02:47:58;18.10;;;9.48;;
9310;SDS011;4694;52.464;13.480;2022-10-26T02:50:26;17.42;;;10.73;;
9310;SDS011;4694;52.464;13.480;2022-10-26T02:52:59;16.67;;;10.05;;
9310;SDS011;4694;52.464;13.480;2022-10-26T02:55:27;19.83;;;10.82;;
9310;SDS011;4694;52.464;13.480;2022-10-26T02:57:57;16.98;;;9.93;;
9310;SDS011;4694;52.464;13.480;2022-10-26T03:00:25;21.58;;;11.40;;
9310;SDS011;4694;52.464;13.480;2022-10-26T03:02:53;25.45;;;11.65;;
9310;SDS011;4694;52.464;13.480;2022-10-26T03:05:22;18.80;;;10.82;;
9310;SDS011;4694;52.464;13.480;2022-10-26T03:07:50;17.35;;;9.90;;
9310;SDS011;4694;52.464;13.480;2022-10-26T03:10:19;17.02;;;10.73;;
9310;SDS011;4694;52.464;13.480;2022-10-26T03:12:46;19.45;;;10.70;;
9310;SDS011;4694;52.464;13.480;2022-10-26T03:15:13;17.08;;;9.80;;
9310;SDS011;4694;52.464;13.480;2022-10-26T03:17:40;18.88;;;9.73;;
9310;SDS011;4694;52.464;13.480;2022-10-26T03:20:08;17.25;;;9.70;;
9310;SDS011;4694;52.464;13.480;2022-10-26T03:22:35;17.42;;;10.30;;
9310;SDS011;4694;52.464;13.480;2022-10-26T03:25:02;19.13;;;11.73;;
9310;SDS011;4694;52.464;13.480;2022-10-26T03:27:30;19.67;;;10.73;;
9310;SDS011;4694;52.464;13.480;2022-10-26T03:29:59;17.93;;;10.23;;
9310;SDS011;4694;52.464;13.480;2022-10-26T03:32:26;41.67;;;12.40;;
9310;SDS011;4694;52.464;13.480;2022-10-26T03:34:53;22.65;;;10.15;;
9310;SDS011;4694;52.464;13.480;2022-10-26T03:37:19;20.50;;;9.88;;
9310;SDS011;4694;52.464;13.480;2022-10-26T03:39:46;19.88;;;11.00;;
9310;SDS011;4694;52.464;13.480;2022-10-26T03:42:13;17.77;;;9.60;;
9310;SDS011;4694;52.464;13.480;2022-10-26T03:44:42;19.25;;;8.82;;
9310;SDS011;4694;52.464;13.480;2022-10-26T03:47:11;17.65;;;9.85;;
9310;SDS011;4694;52.464;13.480;2022-10-26T03:49:38;16.33;;;10.15;;
9310;SDS011;4694;52.464;13.480;2022-10-26T03:52:05;20.35;;;10.75;;
9310;SDS011;4694;52.464;13.480;2022-10-26T03:54:32;17.30;;;10.30;;
9310;SDS011;4694;52.464;13.480;2022-10-26T03:56:59;16.15;;;9.30;;
9310;SDS011;4694;52.464;13.480;2022-10-26T03:59:26;17.83;;;9.07;;
9310;SDS011;4694;52.464;13.480;2022-10-26T04:01:54;18.40;;;9.63;;
9310;SDS011;4694;52.464;13.480;2022-10-26T04:04:21;20.52;;;10.25;;
9310;SDS011;4694;52.464;13.480;2022-10-26T04:06:48;21.88;;;8.93;;
9310;SDS011;4694;52.464;13.480;2022-10-26T04:09:15;24.15;;;11.10;;
9310;SDS011;4694;52.464;13.480;2022-10-26T04:11:42;20.45;;;10.57;;
9310;SDS011;4694;52.464;13.480;2022-10-26T04:14:09;19.02;;;9.05;;
9310;SDS011;4694;52.464;13.480;2022-10-26T04:16:36;26.10;;;12.93;;
9310;SDS011;4694;52.464;13.480;2022-10-26T04:19:04;18.52;;;9.40;;
9310;SDS011;4694;52.464;13.480;2022-10-26T04:21:31;19.25;;;9.75;;
9310;SDS011;4694;52.464;13.480;2022-10-26T04:23:59;14.93;;;8.93;;
9310;SDS011;4694;52.464;13.480;2022-10-26T04:26:26;16.15;;;8.65;;
9310;SDS011;4694;52.464;13.480;2022-10-26T04:28:53;20.30;;;8.77;;
9310;SDS011;4694;52.464;13.480;2022-10-26T04:31:20;18.63;;;8.68;;
9310;SDS011;4694;52.464;13.480;2022-10-26T04:33:50;14.82;;;7.90;;
9310;SDS011;4694;52.464;13.480;2022-10-26T04:36:19;17.00;;;9.20;;
9310;SDS011;4694;52.464;13.480;2022-10-26T04:38:47;14.77;;;7.95;;
9310;SDS011;4694;52.464;13.480;2022-10-26T04:41:14;11.73;;;8.07;;
9310;SDS011;4694;52.464;13.480;2022-10-26T04:43:41;14.75;;;7.97;;
9310;SDS011;4694;52.464;13.480;2022-10-26T04:46:08;17.63;;;9.32;;
9310;SDS011;4694;52.464;13.480;2022-10-26T04:48:38;18.07;;;9.10;;
9310;SDS011;4694;52.464;13.480;2022-10-26T04:51:05;21.27;;;10.80;;
9310;SDS011;4694;52.464;13.480;2022-10-26T04:53:33;17.17;;;9.88;;
9310;SDS011;4694;52.464;13.480;2022-10-26T04:56:00;18.55;;;8.40;;
9310;SDS011;4694;52.464;13.480;2022-10-26T04:58:27;16.90;;;9.18;;
9310;SDS011;4694;52.464;13.480;2022-10-26T05:00:54;15.45;;;8.45;;
9310;SDS011;4694;52.464;13.480;2022-10-26T05:03:22;17.35;;;9.38;;
9310;SDS011;4694;52.464;13.480;2022-10-26T05:05:48;15.93;;;8.60;;
9310;SDS011;4694;52.464;13.480;2022-10-26T05:08:15;13.95;;;8.10;;
9310;SDS011;4694;52.464;13.480;2022-10-26T05:10:47;15.75;;;9.52;;
9310;SDS011;4694;52.464;13.480;2022-10-26T05:13:14;17.60;;;10.18;;
9310;SDS011;4694;52.464;13.480;2022-10-26T05:15:41;16.85;;;8.18;;
9310;SDS011;4694;52.464;13.480;2022-10-26T05:18:08;17.15;;;8.60;;
9310;SDS011;4694;52.464;13.480;2022-10-26T05:20:35;13.68;;;8.65;;
9310;SDS011;4694;52.464;13.480;2022-10-26T05:23:03;15.93;;;8.18;;
9310;SDS011;4694;52.464;13.480;2022-10-26T05:25:32;23.02;;;9.68;;
9310;SDS011;4694;52.464;13.480;2022-10-26T05:28:01;14.55;;;8.30;;
9310;SDS011;4694;52.464;13.480;2022-10-26T05:30:29;14.02;;;7.25;;
9310;SDS011;4694;52.464;13.480;2022-10-26T05:32:56;21.15;;;9.75;;
9310;SDS011;4694;52.464;13.480;2022-10-26T05:35:24;27.40;;;10.65;;
9310;SDS011;4694;52.464;13.480;2022-10-26T05:37:51;33.65;;;11.20;;
9310;SDS011;4694;52.464;13.480;2022-10-26T05:40:18;34.53;;;11.70;;
9310;SDS011;4694;52.464;13.480;2022-10-26T05:42:45;26.52;;;12.40;;
9310;SDS011;4694;52.464;13.480;2022-10-26T05:45:16;25.85;;;12.32;;
9310;SDS011;4694;52.464;13.480;2022-10-26T05:47:43;29.55;;;11.82;;
9310;SDS011;4694;52.464;13.480;2022-10-26T05:50:11;31.63;;;13.20;;
9310;SDS011;4694;52.464;13.480;2022-10-26T05:52:38;26.63;;;11.18;;
9310;SDS011;4694;52.464;13.480;2022-10-26T05:55:06;27.13;;;12.38;;
9310;SDS011;4694;52.464;13.480;2022-10-26T05:57:33;34.80;;;12.07;;
9310;SDS011;4694;52.464;13.480;2022-10-26T06:00:02;29.00;;;13.65;;
9310;SDS011;4694;52.464;13.480;2022-10-26T06:02:32;23.50;;;12.45;;
9310;SDS011;4694;52.464;13.480;2022-10-26T06:05:03;27.45;;;12.00;;
9310;SDS011;4694;52.464;13.480;2022-10-26T06:07:30;39.95;;;15.55;;
9310;SDS011;4694;52.464;13.480;2022-10-26T06:09:58;34.22;;;15.82;;
9310;SDS011;4694;52.464;13.480;2022-10-26T06:12:25;28.75;;;11.48;;
9310;SDS011;4694;52.464;13.480;2022-10-26T06:14:52;27.23;;;12.57;;
9310;SDS011;4694;52.464;13.480;2022-10-26T06:17:34;30.80;;;12.82;;
9310;SDS011;4694;52.464;13.480;2022-10-26T06:20:10;26.63;;;12.18;;
9310;SDS011;4694;52.464;13.480;2022-10-26T06:22:46;29.02;;;14.02;;
9310;SDS011;4694;52.464;13.480;2022-10-26T06:25:20;28.30;;;9.75;;
9310;SDS011;4694;52.464;13.480;2022-10-26T06:27:51;23.52;;;12.57;;
9310;SDS011;4694;52.464;13.480;2022-10-26T06:30:19;24.98;;;13.23;;
9310;SDS011;4694;52.464;13.480;2022-10-26T06:32:48;28.52;;;12.65;;
9310;SDS011;4694;52.464;13.480;2022-10-26T06:35:24;32.25;;;13.98;;
9310;SDS011;4694;52.464;13.480;2022-10-26T06:37:52;23.67;;;12.10;;
9310;SDS011;4694;52.464;13.480;2022-10-26T06:40:21;27.27;;;13.27;;
9310;SDS011;4694;52.464;13.480;2022-10-26T06:42:49;27.42;;;13.77;;
9310;SDS011;4694;52.464;13.480;2022-10-26T06:45:16;24.42;;;13.10;;
9310;SDS011;4694;52.464;13.480;2022-10-26T06:47:45;21.27;;;12.13;;
9310;SDS011;4694;52.464;13.480;2022-10-26T06:50:22;26.25;;;12.52;;
9310;SDS011;4694;52.464;13.480;2022-10-26T06:52:54;23.00;;;12.80;;
9310;SDS011;4694;52.464;13.480;2022-10-26T06:55:22;20.83;;;12.57;;
9310;SDS011;4694;52.464;13.480;2022-10-26T06:57:51;25.80;;;13.13;;
9310;SDS011;4694;52.464;13.480;2022-10-26T07:00:19;23.90;;;12.48;;
9310;SDS011;4694;52.464;13.480;2022-10-26T07:02:47;18.10;;;11.00;;
9310;SDS011;4694;52.464;13.480;2022-10-26T07:05:14;29.63;;;13.85;;
9310;SDS011;4694;52.464;13.480;2022-10-26T07:07:43;23.38;;;12.95;;
9310;SDS011;4694;52.464;13.480;2022-10-26T07:10:11;24.27;;;14.63;;
9310;SDS011;4694;52.464;13.480;2022-10-26T07:12:39;17.63;;;12.48;;
9310;SDS011;4694;52.464;13.480;2022-10-26T07:15:06;23.80;;;11.50;;
9310;SDS011;4694;52.464;13.480;2022-10-26T07:17:40;23.83;;;13.35;;
9310;SDS011;4694;52.464;13.480;2022-10-26T07:20:09;21.00;;;12.45;;
9310;SDS011;4694;52.464;13.480;2022-10-26T07:22:36;26.67;;;12.55;;
9310;SDS011;4694;52.464;13.480;2022-10-26T07:25:05;25.80;;;12.57;;
9310;SDS011;4694;52.464;13.480;2022-10-26T07:27:32;27.10;;;13.40;;
9310;SDS011;4694;52.464;13.480;2022-10-26T07:29:59;24.63;;;12.05;;
9310;SDS011;4694;52.464;13.480;2022-10-26T07:32:26;22.80;;;12.15;;
9310;SDS011;4694;52.464;13.480;2022-10-26T07:34:53;17.35;;;9.95;;
9310;SDS011;4694;52.464;13.480;2022-10-26T07:37:20;15.63;;;9.80;;
9310;SDS011;4694;52.464;13.480;2022-10-26T07:39:47;13.20;;;8.02;;
9310;SDS011;4694;52.464;13.480;2022-10-26T07:42:15;13.90;;;8.38;;
9310;SDS011;4694;52.464;13.480;2022-10-26T07:44:42;18.27;;;9.50;;
9310;SDS011;4694;52.464;13.480;2022-10-26T07:47:09;14.98;;;10.38;;
9310;SDS011;4694;52.464;13.480;2022-10-26T07:49:36;19.33;;;10.10;;
9310;SDS011;4694;52.464;13.480;2022-10-26T07:52:03;15.18;;;8.98;;
9310;SDS011;4694;52.464;13.480;2022-10-26T07:54:30;11.73;;;9.00;;
9310;SDS011;4694;52.464;13.480;2022-10-26T07:56:58;11.38;;;7.50;;
9310;SDS011;4694;52.464;13.480;2022-10-26T07:59:26;13.00;;;8.05;;
9310;SDS011;4694;52.464;13.480;2022-10-26T08:01:53;16.08;;;8.57;;
9310;SDS011;4694;52.464;13.480;2022-10-26T08:04:20;11.20;;;7.88;;
9310;SDS011;4694;52.464;13.480;2022-10-26T08:06:47;11.25;;;8.13;;
9310;SDS011;4694;52.464;13.480;2022-10-26T08:09:14;12.55;;;7.22;;
9310;SDS011;4694;52.464;13.480;2022-10-26T08:11:41;13.57;;;7.25;;
9310;SDS011;4694;52.464;13.480;2022-10-26T08:14:09;12.85;;;8.57;;
9310;SDS011;4694;52.464;13.480;2022-10-26T08:16:37;13.38;;;7.68;;
9310;SDS011;4694;52.464;13.480;2022-10-26T08:19:05;16.33;;;8.15;;
9310;SDS011;4694;52.464;13.480;2022-10-26T08:21:32;13.48;;;7.60;;
9310;SDS011;4694;52.464;13.480;2022-10-26T08:23:59;10.15;;;6.75;;
9310;SDS011;4694;52.464;13.480;2022-10-26T08:26:25;13.20;;;7.22;;
9310;SDS011;4694;52.464;13.480;2022-10-26T08:28:53;9.15;;;7.05;;
9310;SDS011;4694;52.464;13.480;2022-10-26T08:31:20;10.85;;;6.45;;
9310;SDS011;4694;52.464;13.480;2022-10-26T08:33:48;11.38;;;7.82;;
9310;SDS011;4694;52.464;13.480;2022-10-26T08:36:15;9.75;;;7.15;;
9310;SDS011;4694;52.464;13.480;2022-10-26T08:38:46;12.20;;;7.65;;
9310;SDS011;4694;52.464;13.480;2022-10-26T08:41:13;14.52;;;7.63;;
9310;SDS011;4694;52.464;13.480;2022-10-26T08:43:41;7.78;;;6.65;;
9310;SDS011;4694;52.464;13.480;2022-10-26T08:46:11;12.43;;;7.70;;
9310;SDS011;4694;52.464;13.480;2022-10-26T08:48:39;12.90;;;8.05;;
9310;SDS011;4694;52.464;13.480;2022-10-26T08:51:10;10.98;;;7.72;;
9310;SDS011;4694;52.464;13.480;2022-10-26T08:53:39;11.82;;;8.45;;
9310;SDS011;4694;52.464;13.480;2022-10-26T08:56:09;15.82;;;9.18;;
9310;SDS011;4694;52.464;13.480;2022-10-26T08:58:38;14.70;;;8.10;;
9310;SDS011;4694;52.464;13.480;2022-10-26T09:01:06;15.57;;;7.65;;
9310;SDS011;4694;52.464;13.480;2022-10-26T09:03:33;12.63;;;7.20;;
9310;SDS011;4694;52.464;13.480;2022-10-26T09:06:04;14.30;;;8.15;;
9310;SDS011;4694;52.464;13.480;2022-10-26T09:08:36;13.98;;;8.27;;
9310;SDS011;4694;52.464;13.480;2022-10-26T09:11:07;12.27;;;7.60;;
9310;SDS011;4694;52.464;13.480;2022-10-26T09:13:41;11.10;;;8.05;;
9310;SDS011;4694;52.464;13.480;2022-10-26T09:16:14;11.32;;;7.15;;
9310;SDS011;4694;52.464;13.480;2022-10-26T09:18:45;10.00;;;7.40;;
9310;SDS011;4694;52.464;13.480;2022-10-26T09:21:18;19.90;;;7.17;;
9310;SDS011;4694;52.464;13.480;2022-10-26T09:23:56;11.50;;;6.75;;
9310;SDS011;4694;52.464;13.480;2022-10-26T09:26:28;9.88;;;7.03;;
9310;SDS011;4694;52.464;13.480;2022-10-26T09:28:57;10.13;;;6.32;;
9310;SDS011;4694;52.464;13.480;2022-10-26T09:31:27;8.82;;;5.75;;
9310;SDS011;4694;52.464;13.480;2022-10-26T09:33:55;15.43;;;8.98;;
9310;SDS011;4694;52.464;13.480;2022-10-26T09:36:22;14.00;;;7.47;;
9310;SDS011;4694;52.464;13.480;2022-10-26T09:38:50;10.10;;;6.40;;
9310;SDS011;4694;52.464;13.480;2022-10-26T09:41:23;7.47;;;6.68;;
9310;SDS011;4694;52.464;13.480;2022-10-26T09:43:53;11.43;;;6.97;;
9310;SDS011;4694;52.464;13.480;2022-10-26T09:46:24;25.65;;;6.85;;
9310;SDS011;4694;52.464;13.480;2022-10-26T09:48:52;11.95;;;6.85;;
9310;SDS011;4694;52.464;13.480;2022-10-26T09:51:21;12.70;;;7.00;;
9310;SDS011;4694;52.464;13.480;2022-10-26T09:53:51;12.45;;;5.82;;
9310;SDS011;4694;52.464;13.480;2022-10-26T09:56:18;11.65;;;5.88;;
9310;SDS011;4694;52.464;13.480;2022-10-26T09:58:47;7.63;;;4.95;;
9310;SDS011;4694;52.464;13.480;2022-10-26T10:01:26;6.85;;;4.70;;
9310;SDS011;4694;52.464;13.480;2022-10-26T10:04:13;5.05;;;3.90;;
9310;SDS011;4694;52.464;13.480;2022-10-26T10:06:44;5.88;;;3.75;;
9310;SDS011;4694;52.464;13.480;2022-10-26T10:09:12;6.43;;;3.58;;
9310;SDS011;4694;52.464;13.480;2022-10-26T10:11:39;9.93;;;3.67;;
9310;SDS011;4694;52.464;13.480;2022-10-26T10:14:11;4.75;;;2.50;;
9310;SDS011;4694;52.464;13.480;2022-10-26T10:16:39;4.10;;;2.45;;
9310;SDS011;4694;52.464;13.480;2022-10-26T10:19:08;2.83;;;2.08;;
9310;SDS011;4694;52.464;13.480;2022-10-26T10:21:47;3.75;;;2.22;;
9310;SDS011;4694;52.464;13.480;2022-10-26T10:24:21;5.53;;;2.10;;
9310;SDS011;4694;52.464;13.480;2022-10-26T10:26:56;4.60;;;2.30;;
9310;SDS011;4694;52.464;13.480;2022-10-26T10:29:27;6.93;;;1.90;;
9310;SDS011;4694;52.464;13.480;2022-10-26T10:31:55;3.55;;;1.60;;
9310;SDS011;4694;52.464;13.480;2022-10-26T10:34:22;2.28;;;1.75;;
9310;SDS011;4694;52.464;13.480;2022-10-26T10:36:49;1.92;;;1.50;;
9310;SDS011;4694;52.464;13.480;2022-10-26T10:39:32;4.15;;;1.75;;
9310;SDS011;4694;52.464;13.480;2022-10-26T10:41:59;2.65;;;1.25;;
9310;SDS011;4694;52.464;13.480;2022-10-26T10:44:28;2.45;;;1.50;;
9310;SDS011;4694;52.464;13.480;2022-10-26T10:46:58;4.38;;;1.83;;
9310;SDS011;4694;52.464;13.480;2022-10-26T10:49:26;1.90;;;1.73;;
9310;SDS011;4694;52.464;13.480;2022-10-26T10:51:54;2.38;;;1.67;;
9310;SDS011;4694;52.464;13.480;2022-10-26T10:54:21;2.47;;;1.88;;
9310;SDS011;4694;52.464;13.480;2022-10-26T10:56:50;3.28;;;1.35;;
9310;SDS011;4694;52.464;13.480;2022-10-26T10:59:23;3.33;;;1.88;;
9310;SDS011;4694;52.464;13.480;2022-10-26T11:01:56;2.83;;;1.40;;
9310;SDS011;4694;52.464;13.480;2022-10-26T11:04:30;2.75;;;1.60;;
9310;SDS011;4694;52.464;13.480;2022-10-26T11:06:59;3.53;;;1.92;;
9310;SDS011;4694;52.464;13.480;2022-10-26T11:09:29;4.93;;;2.92;;
9310;SDS011;4694;52.464;13.480;2022-10-26T11:11:57;6.57;;;2.22;;
9310;SDS011;4694;52.464;13.480;2022-10-26T11:14:27;2.65;;;1.45;;
9310;SDS011;4694;52.464;13.480;2022-10-26T11:16:57;2.45;;;2.25;;
9310;SDS011;4694;52.464;13.480;2022-10-26T11:19:29;3.30;;;2.08;;
9310;SDS011;4694;52.464;13.480;2022-10-26T11:21:58;2.47;;;1.42;;
9310;SDS011;4694;52.464;13.480;2022-10-26T11:24:26;3.10;;;1.80;;
9310;SDS011;4694;52.464;13.480;2022-10-26T11:26:56;2.40;;;1.63;;
9310;SDS011;4694;52.464;13.480;2022-10-26T11:29:34;2.15;;;1.20;;
9310;SDS011;4694;52.464;13.480;2022-10-26T11:32:04;5.07;;;1.48;;
9310;SDS011;4694;52.464;13.480;2022-10-26T11:34:35;2.45;;;1.70;;
9310;SDS011;4694;52.464;13.480;2022-10-26T11:37:04;3.65;;;1.70;;
9310;SDS011;4694;52.464;13.480;2022-10-26T11:39:35;1.52;;;1.38;;
9310;SDS011;4694;52.464;13.480;2022-10-26T11:42:05;3.08;;;1.50;;
9310;SDS011;4694;52.464;13.480;2022-10-26T11:44:36;3.33;;;1.48;;
9310;SDS011;4694;52.464;13.480;2022-10-26T11:49:35;8.38;;;1.58;;
9310;SDS011;4694;52.464;13.480;2022-10-26T11:52:05;2.08;;;1.05;;
9310;SDS011;4694;52.464;13.480;2022-10-26T11:54:34;3.88;;;1.30;;
9310;SDS011;4694;52.464;13.480;2022-10-26T11:57:02;4.85;;;1.63;;
9310;SDS011;4694;52.464;13.480;2022-10-26T11:59:31;1.80;;;1.00;;
9310;SDS011;4694;52.464;13.480;2022-10-26T12:02:00;3.97;;;1.48;;
9310;SDS011;4694;52.464;13.480;2022-10-26T12:04:29;5.30;;;1.00;;
9310;SDS011;4694;52.464;13.480;2022-10-26T12:06:58;1.50;;;0.82;;
9310;SDS011;4694;52.464;13.480;2022-10-26T12:09:29;4.47;;;1.02;;
9310;SDS011;4694;52.464;13.480;2022-10-26T12:11:57;1.25;;;0.85;;
9310;SDS011;4694;52.464;13.480;2022-10-26T12:14:29;0.98;;;0.80;;
9310;SDS011;4694;52.464;13.480;2022-10-26T12:17:01;3.38;;;0.93;;
9310;SDS011;4694;52.464;13.480;2022-10-26T12:19:30;1.35;;;0.65;;
9310;SDS011;4694;52.464;13.480;2022-10-26T12:22:01;2.17;;;1.15;;
9310;SDS011;4694;52.464;13.480;2022-10-26T12:24:29;2.63;;;1.20;;
9310;SDS011;4694;52.464;13.480;2022-10-26T12:26:59;1.75;;;0.98;;
9310;SDS011;4694;52.464;13.480;2022-10-26T12:29:30;3.05;;;0.93;;
9310;SDS011;4694;52.464;13.480;2022-10-26T12:32:00;2.67;;;0.65;;
9310;SDS011;4694;52.464;13.480;2022-10-26T12:37:30;2.25;;;1.10;;
9310;SDS011;4694;52.464;13.480;2022-10-26T12:42:39;2.10;;;1.00;;
9310;SDS011;4694;52.464;13.480;2022-10-26T12:45:13;1.67;;;1.00;;
9310;SDS011;4694;52.464;13.480;2022-10-26T12:48:00;1.88;;;0.80;;
9310;SDS011;4694;52.464;13.480;2022-10-26T12:50:27;2.92;;;1.02;;
9310;SDS011;4694;52.464;13.480;2022-10-26T12:52:56;4.80;;;1.23;;
9310;SDS011;4694;52.464;13.480;2022-10-26T12:55:41;2.45;;;1.10;;
9310;SDS011;4694;52.464;13.480;2022-10-26T13:01:11;3.72;;;1.55;;
9310;SDS011;4694;52.464;13.480;2022-10-26T13:03:45;3.08;;;0.70;;
9310;SDS011;4694;52.464;13.480;2022-10-26T13:06:22;2.30;;;1.63;;
9310;SDS011;4694;52.464;13.480;2022-10-26T13:08:55;3.78;;;1.15;;
9310;SDS011;4694;52.464;13.480;2022-10-26T13:11:24;3.22;;;0.80;;
9310;SDS011;4694;52.464;13.480;2022-10-26T13:13:53;2.78;;;0.90;;
9310;SDS011;4694;52.464;13.480;2022-10-26T13:16:22;2.20;;;0.77;;
9310;SDS011;4694;52.464;13.480;2022-10-26T13:18:50;5.22;;;1.45;;
9310;SDS011;4694;52.464;13.480;2022-10-26T13:21:17;3.38;;;2.03;;
9310;SDS011;4694;52.464;13.480;2022-10-26T13:23:45;3.70;;;1.02;;
9310;SDS011;4694;52.464;13.480;2022-10-26T13:26:14;1.92;;;1.05;;
9310;SDS011;4694;52.464;13.480;2022-10-26T13:28:44;3.58;;;1.38;;
9310;SDS011;4694;52.464;13.480;2022-10-26T13:31:12;2.88;;;1.48;;
9310;SDS011;4694;52.464;13.480;2022-10-26T13:33:42;1.35;;;1.20;;
9310;SDS011;4694;52.464;13.480;2022-10-26T13:36:13;1.88;;;1.25;;
9310;SDS011;4694;52.464;13.480;2022-10-26T13:38:41;3.78;;;1.35;;
9310;SDS011;4694;52.464;13.480;2022-10-26T13:41:29;1.42;;;1.27;;
9310;SDS011;4694;52.464;13.480;2022-10-26T13:43:58;7.10;;;2.53;;
9310;SDS011;4694;52.464;13.480;2022-10-26T13:46:28;2.67;;;1.40;;
9310;SDS011;4694;52.464;13.480;2022-10-26T13:48:58;3.80;;;1.73;;
9310;SDS011;4694;52.464;13.480;2022-10-26T13:51:29;2.22;;;1.33;;
9310;SDS011;4694;52.464;13.480;2022-10-26T13:54:00;4.95;;;1.48;;
9310;SDS011;4694;52.464;13.480;2022-10-26T13:56:31;4.25;;;2.00;;
9310;SDS011;4694;52.464;13.480;2022-10-26T14:01:26;2.42;;;1.33;;
9310;SDS011;4694;52.464;13.480;2022-10-26T14:03:54;3.40;;;1.15;;
9310;SDS011;4694;52.464;13.480;2022-10-26T14:06:23;4.65;;;1.50;;
9310;SDS011;4694;52.464;13.480;2022-10-26T14:08:52;2.70;;;1.40;;
9310;SDS011;4694;52.464;13.480;2022-10-26T14:11:21;5.88;;;2.22;;
9310;SDS011;4694;52.464;13.480;2022-10-26T14:13:50;3.58;;;0.80;;
9310;SDS011;4694;52.464;13.480;2022-10-26T14:16:17;3.00;;;1.17;;
9310;SDS011;4694;52.464;13.480;2022-10-26T14:18:45;3.05;;;1.48;;
9310;SDS011;4694;52.464;13.480;2022-10-26T14:21:13;5.13;;;1.75;;
9310;SDS011;4694;52.464;13.480;2022-10-26T14:23:45;3.80;;;1.50;;
9310;SDS011;4694;52.464;13.480;2022-10-26T14:26:17;9.13;;;3.30;;
9310;SDS011;4694;52.464;13.480;2022-10-26T14:28:46;3.92;;;1.45;;
9310;SDS011;4694;52.464;13.480;2022-10-26T14:31:20;2.28;;;1.17;;
9310;SDS011;4694;52.464;13.480;2022-10-26T14:33:47;3.00;;;1.35;;
9310;SDS011;4694;52.464;13.480;2022-10-26T14:36:14;3.17;;;1.15;;
9310;SDS011;4694;52.464;13.480;2022-10-26T14:38:43;4.18;;;1.05;;
9310;SDS011;4694;52.464;13.480;2022-10-26T14:41:11;2.83;;;1.80;;
9310;SDS011;4694;52.464;13.480;2022-10-26T14:43:39;4.20;;;1.15;;
9310;SDS011;4694;52.464;13.480;2022-10-26T14:46:10;3.97;;;1.50;;
9310;SDS011;4694;52.464;13.480;2022-10-26T14:48:40;2.42;;;0.90;;
9310;SDS011;4694;52.464;13.480;2022-10-26T14:51:08;1.40;;;1.20;;
9310;SDS011;4694;52.464;13.480;2022-10-26T14:53:37;4.03;;;1.30;;
9310;SDS011;4694;52.464;13.480;2022-10-26T14:56:15;2.42;;;1.10;;
9310;SDS011;4694;52.464;13.480;2022-10-26T14:58:43;2.75;;;1.40;;
9310;SDS011;4694;52.464;13.480;2022-10-26T15:01:13;2.67;;;1.25;;
9310;SDS011;4694;52.464;13.480;2022-10-26T15:03:42;2.70;;;1.48;;
9310;SDS011;4694;52.464;13.480;2022-10-26T15:09:04;2.88;;;1.80;;
9310;SDS011;4694;52.464;13.480;2022-10-26T15:11:32;5.15;;;1.60;;
9310;SDS011;4694;52.464;13.480;2022-10-26T15:14:00;3.80;;;1.55;;
9310;SDS011;4694;52.464;13.480;2022-10-26T15:16:29;4.45;;;2.38;;
9310;SDS011;4694;52.464;13.480;2022-10-26T15:18:58;2.17;;;1.48;;